PGT331 LTFJ-LHBP
Flight info
| Callsign | PGT331 |
|---|---|
| Flight time | 1h 44m |
| Altitude | 38000 |
| Route | IBLAX1J/06L IBLAX P727 BGS L622 GONGO DCT KOMAN DCT VASIS DCT DEGET DCT KEZAL |
| Aircraft | A320/M-SDE2E3FGHIJ3J4J5M1RWXYZ/LB1D1 |
Departure
| Time | 2026-05-07 18:04 |
|---|---|
| Airport | Istanbul Sabiha Gökçen International Airport (LTFJ) |
Arrival
| Time | 2026-05-07 19:48 |
|---|---|
| Airport | Budapest Liszt Ferenc International Airport (LHBP) |
| Time | Latitude | Longitude | Altitude | Speed | Heading |
|---|---|---|---|---|---|
| 2026-05-07 17:23 | 40.90609 | 29.31575 | 310 ft | 0 kts | 334° |
| 2026-05-07 17:48 | 40.90605 | 29.31577 | 311 ft | 3 kts | 334° |
| 2026-05-07 17:49 | 40.90581 | 29.31592 | 311 ft | 4 kts | 334° |
| 2026-05-07 17:49 | 40.90557 | 29.31608 | 311 ft | 4 kts | 334° |
| 2026-05-07 17:49 | 40.90533 | 29.31624 | 310 ft | 4 kts | 332° |
| 2026-05-07 17:49 | 40.90510 | 29.31640 | 311 ft | 2 kts | 331° |
| 2026-05-07 17:50 | 40.90508 | 29.31641 | 310 ft | 0 kts | 331° |
| 2026-05-07 17:54 | 40.90509 | 29.31639 | 311 ft | 0 kts | 321° |
| 2026-05-07 17:54 | 40.90514 | 29.31627 | 310 ft | 2 kts | 293° |
| 2026-05-07 17:55 | 40.90511 | 29.31606 | 311 ft | 4 kts | 251° |
| 2026-05-07 17:55 | 40.90491 | 29.31549 | 311 ft | 9 kts | 244° |
| 2026-05-07 17:55 | 40.90464 | 29.31478 | 310 ft | 8 kts | 243° |
| 2026-05-07 17:55 | 40.90428 | 29.31438 | 311 ft | 6 kts | 192° |
| 2026-05-07 17:56 | 40.90395 | 29.31449 | 311 ft | 4 kts | 158° |
| 2026-05-07 17:56 | 40.90354 | 29.31474 | 311 ft | 10 kts | 155° |
| 2026-05-07 17:56 | 40.90277 | 29.31479 | 311 ft | 14 kts | 214° |
| 2026-05-07 17:56 | 40.90226 | 29.31358 | 310 ft | 17 kts | 244° |
| 2026-05-07 17:57 | 40.90173 | 29.31216 | 310 ft | 17 kts | 243° |
| 2026-05-07 17:57 | 40.90137 | 29.31120 | 310 ft | 18 kts | 244° |
| 2026-05-07 17:57 | 40.90061 | 29.30908 | 310 ft | 20 kts | 243° |
| 2026-05-07 17:57 | 40.89997 | 29.30738 | 309 ft | 21 kts | 244° |
| 2026-05-07 17:58 | 40.89930 | 29.30555 | 311 ft | 23 kts | 244° |
| 2026-05-07 17:58 | 40.89859 | 29.30364 | 310 ft | 23 kts | 244° |
| 2026-05-07 17:58 | 40.89795 | 29.30188 | 309 ft | 21 kts | 245° |
| 2026-05-07 17:58 | 40.89727 | 29.30007 | 308 ft | 23 kts | 244° |
| 2026-05-07 17:59 | 40.89654 | 29.29809 | 308 ft | 25 kts | 244° |
| 2026-05-07 17:59 | 40.89586 | 29.29624 | 304 ft | 20 kts | 243° |
| 2026-05-07 17:59 | 40.89524 | 29.29460 | 302 ft | 17 kts | 244° |
| 2026-05-07 17:59 | 40.89479 | 29.29335 | 305 ft | 14 kts | 244° |
| 2026-05-07 18:00 | 40.89420 | 29.29256 | 303 ft | 10 kts | 192° |
| 2026-05-07 18:00 | 40.89364 | 29.29275 | 303 ft | 7 kts | 155° |
| 2026-05-07 18:00 | 40.89347 | 29.29285 | 302 ft | 0 kts | 159° |
| 2026-05-07 18:02 | 40.89346 | 29.29286 | 302 ft | 1 kts | 159° |
| 2026-05-07 18:02 | 40.89324 | 29.29299 | 301 ft | 5 kts | 154° |
| 2026-05-07 18:02 | 40.89293 | 29.29323 | 304 ft | 5 kts | 137° |
| 2026-05-07 18:03 | 40.89287 | 29.29369 | 303 ft | 4 kts | 78° |
| 2026-05-07 18:03 | 40.89293 | 29.29392 | 304 ft | 2 kts | 66° |
| 2026-05-07 18:03 | 40.89337 | 29.29514 | 305 ft | 45 kts | 64° |
| 2026-05-07 18:03 | 40.89579 | 29.30172 | 309 ft | 111 kts | 64° |
| 2026-05-07 18:04 | 40.89981 | 29.31279 | 329 ft | 157 kts | 64° |
| 2026-05-07 18:04 | 40.90431 | 29.32504 | 1103 ft | 142 kts | 64° |
| 2026-05-07 18:04 | 40.90869 | 29.33694 | 1669 ft | 147 kts | 65° |
| 2026-05-07 18:04 | 40.91328 | 29.34943 | 2166 ft | 157 kts | 65° |
| 2026-05-07 18:05 | 40.91840 | 29.36336 | 2476 ft | 180 kts | 64° |
| 2026-05-07 18:05 | 40.92420 | 29.37910 | 2774 ft | 202 kts | 64° |
| 2026-05-07 18:05 | 40.93071 | 29.39675 | 3050 ft | 226 kts | 64° |
| 2026-05-07 18:05 | 40.93797 | 29.41646 | 3463 ft | 250 kts | 63° |
| 2026-05-07 18:06 | 40.94582 | 29.43775 | 4065 ft | 265 kts | 63° |
| 2026-05-07 18:06 | 40.95403 | 29.46009 | 4842 ft | 273 kts | 63° |
| 2026-05-07 18:06 | 40.96242 | 29.48295 | 5698 ft | 279 kts | 63° |
| 2026-05-07 18:06 | 40.97095 | 29.50623 | 6547 ft | 284 kts | 63° |
| 2026-05-07 18:07 | 40.97951 | 29.52962 | 7377 ft | 288 kts | 63° |
| 2026-05-07 18:07 | 40.98826 | 29.55363 | 8204 ft | 293 kts | 62° |
| 2026-05-07 18:07 | 40.99759 | 29.57774 | 9039 ft | 295 kts | 54° |
| 2026-05-07 18:07 | 41.01182 | 29.59710 | 9813 ft | 296 kts | 31° |
| 2026-05-07 18:08 | 41.03054 | 29.60810 | 10517 ft | 300 kts | 11° |
| 2026-05-07 18:08 | 41.05189 | 29.60876 | 10772 ft | 319 kts | 346° |
| 2026-05-07 18:08 | 41.07352 | 29.60006 | 11274 ft | 330 kts | 340° |
| 2026-05-07 18:08 | 41.09550 | 29.59069 | 12011 ft | 333 kts | 341° |
| 2026-05-07 18:09 | 41.11771 | 29.58137 | 12766 ft | 336 kts | 341° |
| 2026-05-07 18:09 | 41.13982 | 29.57222 | 13530 ft | 338 kts | 341° |
| 2026-05-07 18:09 | 41.16240 | 29.56295 | 14258 ft | 340 kts | 342° |
| 2026-05-07 18:09 | 41.18506 | 29.55364 | 14949 ft | 343 kts | 342° |
| 2026-05-07 18:10 | 41.20790 | 29.54424 | 15633 ft | 344 kts | 342° |
| 2026-05-07 18:10 | 41.23086 | 29.53477 | 16301 ft | 347 kts | 342° |
| 2026-05-07 18:10 | 41.25398 | 29.52523 | 16950 ft | 349 kts | 341° |
| 2026-05-07 18:10 | 41.27720 | 29.51561 | 17588 ft | 351 kts | 341° |
| 2026-05-07 18:11 | 41.30055 | 29.50590 | 18214 ft | 353 kts | 341° |
| 2026-05-07 18:11 | 41.31607 | 29.49942 | 18610 ft | 354 kts | 341° |
| 2026-05-07 18:11 | 41.34465 | 29.47903 | 19371 ft | 356 kts | 319° |
| 2026-05-07 18:11 | 41.36092 | 29.45405 | 19931 ft | 359 kts | 307° |
| 2026-05-07 18:12 | 41.37567 | 29.42706 | 20483 ft | 362 kts | 307° |
| 2026-05-07 18:12 | 41.39042 | 29.39980 | 21027 ft | 364 kts | 307° |
| 2026-05-07 18:12 | 41.40521 | 29.37230 | 21559 ft | 366 kts | 307° |
| 2026-05-07 18:12 | 41.42004 | 29.34470 | 22057 ft | 368 kts | 307° |
| 2026-05-07 18:13 | 41.43497 | 29.31697 | 22552 ft | 370 kts | 307° |
| 2026-05-07 18:13 | 41.45006 | 29.28901 | 23042 ft | 371 kts | 307° |
| 2026-05-07 18:13 | 41.46519 | 29.26102 | 23505 ft | 373 kts | 307° |
| 2026-05-07 18:13 | 41.48020 | 29.23321 | 23944 ft | 375 kts | 307° |
| 2026-05-07 18:14 | 41.49544 | 29.20492 | 24397 ft | 377 kts | 307° |
| 2026-05-07 18:14 | 41.51079 | 29.17643 | 24818 ft | 379 kts | 307° |
| 2026-05-07 18:14 | 41.52618 | 29.14782 | 25213 ft | 381 kts | 307° |
| 2026-05-07 18:14 | 41.54170 | 29.11897 | 25605 ft | 384 kts | 307° |
| 2026-05-07 18:15 | 41.55730 | 29.08994 | 25997 ft | 385 kts | 307° |
| 2026-05-07 18:15 | 41.57295 | 29.06080 | 26386 ft | 387 kts | 307° |
| 2026-05-07 18:15 | 41.58847 | 29.03184 | 26751 ft | 389 kts | 307° |
| 2026-05-07 18:15 | 41.60424 | 29.00239 | 27126 ft | 391 kts | 307° |
| 2026-05-07 18:16 | 41.62009 | 28.97281 | 27488 ft | 393 kts | 307° |
| 2026-05-07 18:16 | 41.63603 | 28.94305 | 27841 ft | 395 kts | 307° |
| 2026-05-07 18:16 | 41.65201 | 28.91313 | 28185 ft | 396 kts | 307° |
| 2026-05-07 18:16 | 41.66805 | 28.88306 | 28509 ft | 398 kts | 307° |
| 2026-05-07 18:17 | 41.68417 | 28.85276 | 28847 ft | 400 kts | 307° |
| 2026-05-07 18:17 | 41.70034 | 28.82236 | 29172 ft | 402 kts | 307° |
| 2026-05-07 18:17 | 41.71657 | 28.79182 | 29482 ft | 404 kts | 307° |
| 2026-05-07 18:17 | 41.73283 | 28.76115 | 29772 ft | 405 kts | 307° |
| 2026-05-07 18:18 | 41.74895 | 28.73071 | 30070 ft | 406 kts | 307° |
| 2026-05-07 18:18 | 41.76530 | 28.69979 | 30352 ft | 408 kts | 307° |
| 2026-05-07 18:18 | 41.78174 | 28.66871 | 30619 ft | 410 kts | 307° |
| 2026-05-07 18:18 | 41.79829 | 28.63750 | 30875 ft | 411 kts | 307° |
| 2026-05-07 18:19 | 41.81485 | 28.60622 | 31133 ft | 413 kts | 307° |
| 2026-05-07 18:19 | 41.83148 | 28.57474 | 31395 ft | 414 kts | 307° |
| 2026-05-07 18:19 | 41.84806 | 28.54323 | 31732 ft | 413 kts | 307° |
| 2026-05-07 18:19 | 41.86460 | 28.51180 | 32063 ft | 413 kts | 307° |
| 2026-05-07 18:20 | 41.88115 | 28.48034 | 32402 ft | 412 kts | 306° |
| 2026-05-07 18:20 | 41.89744 | 28.44936 | 32730 ft | 411 kts | 306° |
| 2026-05-07 18:20 | 41.91390 | 28.41802 | 33048 ft | 411 kts | 306° |
| 2026-05-07 18:20 | 41.93035 | 28.38666 | 33366 ft | 410 kts | 306° |
| 2026-05-07 18:21 | 41.94671 | 28.35543 | 33695 ft | 409 kts | 306° |
| 2026-05-07 18:21 | 41.96307 | 28.32415 | 34006 ft | 408 kts | 306° |
| 2026-05-07 18:21 | 41.97935 | 28.29302 | 34335 ft | 407 kts | 306° |
| 2026-05-07 18:21 | 41.99558 | 28.26186 | 34641 ft | 407 kts | 306° |
| 2026-05-07 18:22 | 42.01159 | 28.23049 | 34917 ft | 406 kts | 305° |
| 2026-05-07 18:22 | 42.02206 | 28.20972 | 35096 ft | 406 kts | 305° |
| 2026-05-07 18:22 | 42.04294 | 28.16803 | 35429 ft | 406 kts | 304° |
| 2026-05-07 18:22 | 42.05870 | 28.13651 | 35671 ft | 406 kts | 304° |
| 2026-05-07 18:23 | 42.07447 | 28.10501 | 35910 ft | 405 kts | 304° |
| 2026-05-07 18:23 | 42.09025 | 28.07354 | 36132 ft | 405 kts | 304° |
| 2026-05-07 18:23 | 42.10603 | 28.04212 | 36344 ft | 405 kts | 304° |
| 2026-05-07 18:23 | 42.12183 | 28.01067 | 36530 ft | 406 kts | 304° |
| 2026-05-07 18:24 | 42.13765 | 27.97921 | 36750 ft | 405 kts | 304° |
| 2026-05-07 18:24 | 42.15338 | 27.94781 | 37008 ft | 404 kts | 304° |
| 2026-05-07 18:24 | 42.16905 | 27.91649 | 37275 ft | 402 kts | 304° |
| 2026-05-07 18:24 | 42.18439 | 27.88575 | 37543 ft | 399 kts | 304° |
| 2026-05-07 18:25 | 42.19984 | 27.85474 | 37773 ft | 398 kts | 304° |
| 2026-05-07 18:25 | 42.21639 | 27.82497 | 37932 ft | 398 kts | 312° |
| 2026-05-07 18:25 | 42.23646 | 27.79926 | 38077 ft | 399 kts | 321° |
| 2026-05-07 18:26 | 42.28421 | 27.76060 | 38109 ft | 402 kts | 329° |
| 2026-05-07 18:26 | 42.33346 | 27.72476 | 38109 ft | 402 kts | 329° |
| 2026-05-07 18:27 | 42.38228 | 27.68899 | 38109 ft | 402 kts | 329° |
| 2026-05-07 18:27 | 42.43146 | 27.65281 | 38108 ft | 403 kts | 329° |
| 2026-05-07 18:28 | 42.48068 | 27.61657 | 38106 ft | 403 kts | 329° |
| 2026-05-07 18:28 | 42.52989 | 27.58031 | 38106 ft | 403 kts | 329° |
| 2026-05-07 18:29 | 42.57914 | 27.54393 | 38103 ft | 403 kts | 328° |
| 2026-05-07 18:29 | 42.62489 | 27.50118 | 38099 ft | 402 kts | 322° |
| 2026-05-07 18:30 | 42.67023 | 27.45667 | 38101 ft | 402 kts | 322° |
| 2026-05-07 18:30 | 42.71554 | 27.41204 | 38101 ft | 403 kts | 322° |
| 2026-05-07 18:31 | 42.76090 | 27.36727 | 38104 ft | 403 kts | 322° |
| 2026-05-07 18:31 | 42.80604 | 27.32271 | 38101 ft | 404 kts | 322° |
| 2026-05-07 18:32 | 42.85156 | 27.27780 | 38105 ft | 404 kts | 322° |
| 2026-05-07 18:32 | 42.89712 | 27.23265 | 38109 ft | 405 kts | 322° |
| 2026-05-07 18:33 | 42.94268 | 27.18744 | 38110 ft | 405 kts | 322° |
| 2026-05-07 18:33 | 42.98795 | 27.14240 | 38110 ft | 405 kts | 322° |
| 2026-05-07 18:34 | 43.03349 | 27.09701 | 38110 ft | 405 kts | 322° |
| 2026-05-07 18:34 | 43.07906 | 27.05150 | 38110 ft | 406 kts | 322° |
| 2026-05-07 18:35 | 43.12502 | 27.00669 | 38110 ft | 406 kts | 324° |
| 2026-05-07 18:35 | 43.17196 | 26.96441 | 38110 ft | 407 kts | 324° |
| 2026-05-07 18:36 | 43.21942 | 26.92225 | 38103 ft | 407 kts | 324° |
| 2026-05-07 18:36 | 43.26669 | 26.87960 | 38097 ft | 407 kts | 324° |
| 2026-05-07 18:37 | 43.31377 | 26.83660 | 38097 ft | 407 kts | 324° |
| 2026-05-07 18:37 | 43.36091 | 26.79340 | 38086 ft | 408 kts | 324° |
| 2026-05-07 18:38 | 43.40780 | 26.75040 | 38084 ft | 408 kts | 323° |
| 2026-05-07 18:38 | 43.45506 | 26.70708 | 38083 ft | 409 kts | 323° |
| 2026-05-07 18:39 | 43.50232 | 26.66373 | 38082 ft | 409 kts | 323° |
| 2026-05-07 18:39 | 43.54969 | 26.62012 | 38084 ft | 409 kts | 323° |
| 2026-05-07 18:40 | 43.59665 | 26.57678 | 38083 ft | 409 kts | 323° |
| 2026-05-07 18:40 | 43.64397 | 26.53296 | 38077 ft | 410 kts | 323° |
| 2026-05-07 18:41 | 43.69129 | 26.48909 | 38080 ft | 410 kts | 323° |
| 2026-05-07 18:41 | 43.73865 | 26.44511 | 38076 ft | 410 kts | 323° |
| 2026-05-07 18:42 | 43.78605 | 26.40108 | 38080 ft | 410 kts | 323° |
| 2026-05-07 18:42 | 43.83312 | 26.35731 | 38080 ft | 411 kts | 323° |
| 2026-05-07 18:43 | 43.88050 | 26.31306 | 38080 ft | 411 kts | 322° |
| 2026-05-07 18:43 | 43.92793 | 26.26866 | 38072 ft | 411 kts | 322° |
| 2026-05-07 18:44 | 43.97434 | 26.22356 | 38072 ft | 408 kts | 316° |
| 2026-05-07 18:44 | 44.01178 | 26.16531 | 38067 ft | 404 kts | 305° |
| 2026-05-07 18:45 | 44.04591 | 26.10330 | 38064 ft | 404 kts | 305° |
| 2026-05-07 18:45 | 44.08004 | 26.04122 | 38062 ft | 405 kts | 305° |
| 2026-05-07 18:46 | 44.11396 | 25.97937 | 38065 ft | 405 kts | 305° |
| 2026-05-07 18:46 | 44.14809 | 25.91703 | 38067 ft | 405 kts | 305° |
| 2026-05-07 18:47 | 44.18217 | 25.85459 | 38069 ft | 405 kts | 305° |
| 2026-05-07 18:47 | 44.21626 | 25.79203 | 38066 ft | 405 kts | 304° |
| 2026-05-07 18:48 | 44.25010 | 25.72979 | 38063 ft | 405 kts | 304° |
| 2026-05-07 18:48 | 44.28410 | 25.66705 | 38057 ft | 405 kts | 304° |
| 2026-05-07 18:49 | 44.31812 | 25.60414 | 38055 ft | 406 kts | 304° |
| 2026-05-07 18:49 | 44.35214 | 25.54110 | 38054 ft | 407 kts | 304° |
| 2026-05-07 18:50 | 44.38619 | 25.47793 | 38049 ft | 407 kts | 304° |
| 2026-05-07 18:50 | 44.42005 | 25.41498 | 38047 ft | 408 kts | 304° |
| 2026-05-07 18:51 | 44.45413 | 25.35148 | 38045 ft | 408 kts | 304° |
| 2026-05-07 18:51 | 44.48821 | 25.28775 | 38044 ft | 409 kts | 304° |
| 2026-05-07 18:52 | 44.52239 | 25.22384 | 38042 ft | 410 kts | 304° |
| 2026-05-07 18:52 | 44.55642 | 25.16015 | 38041 ft | 411 kts | 304° |
| 2026-05-07 18:53 | 44.59057 | 25.09582 | 38042 ft | 412 kts | 304° |
| 2026-05-07 18:53 | 44.62482 | 25.03121 | 38044 ft | 413 kts | 304° |
| 2026-05-07 18:54 | 44.65909 | 24.96648 | 38046 ft | 414 kts | 304° |
| 2026-05-07 18:54 | 44.69347 | 24.90148 | 38049 ft | 414 kts | 304° |
| 2026-05-07 18:55 | 44.72756 | 24.83674 | 38051 ft | 415 kts | 304° |
| 2026-05-07 18:55 | 44.76190 | 24.77136 | 38054 ft | 416 kts | 304° |
| 2026-05-07 18:56 | 44.79628 | 24.70587 | 38054 ft | 416 kts | 304° |
| 2026-05-07 18:56 | 44.83071 | 24.64016 | 38056 ft | 417 kts | 304° |
| 2026-05-07 18:57 | 44.86489 | 24.57472 | 38059 ft | 418 kts | 303° |
| 2026-05-07 18:57 | 44.89930 | 24.50869 | 38061 ft | 418 kts | 303° |
| 2026-05-07 18:58 | 44.93369 | 24.44257 | 38061 ft | 418 kts | 303° |
| 2026-05-07 18:58 | 44.96802 | 24.37626 | 38062 ft | 418 kts | 303° |
| 2026-05-07 18:59 | 45.00219 | 24.31034 | 38063 ft | 419 kts | 303° |
| 2026-05-07 18:59 | 45.03662 | 24.24389 | 38062 ft | 419 kts | 303° |
| 2026-05-07 19:00 | 45.07088 | 24.17728 | 38061 ft | 419 kts | 303° |
| 2026-05-07 19:00 | 45.10511 | 24.11049 | 38061 ft | 419 kts | 303° |
| 2026-05-07 19:01 | 45.13933 | 24.04374 | 38062 ft | 420 kts | 303° |
| 2026-05-07 19:01 | 45.17339 | 23.97724 | 38061 ft | 419 kts | 303° |
| 2026-05-07 19:02 | 45.20752 | 23.91031 | 38055 ft | 419 kts | 303° |
| 2026-05-07 19:02 | 45.24167 | 23.84314 | 38055 ft | 419 kts | 303° |
| 2026-05-07 19:03 | 45.27583 | 23.77602 | 38055 ft | 420 kts | 303° |
| 2026-05-07 19:03 | 45.30945 | 23.70963 | 38051 ft | 419 kts | 302° |
| 2026-05-07 19:04 | 45.34358 | 23.64203 | 38046 ft | 419 kts | 302° |
| 2026-05-07 19:04 | 45.37766 | 23.57446 | 38049 ft | 420 kts | 302° |
| 2026-05-07 19:05 | 45.41169 | 23.50694 | 38054 ft | 420 kts | 302° |
| 2026-05-07 19:05 | 45.44541 | 23.43976 | 38059 ft | 420 kts | 302° |
| 2026-05-07 19:06 | 45.47939 | 23.37202 | 38060 ft | 420 kts | 302° |
| 2026-05-07 19:06 | 45.53014 | 23.27030 | 38058 ft | 420 kts | 302° |
| 2026-05-07 19:07 | 45.56372 | 23.20283 | 38060 ft | 420 kts | 302° |
| 2026-05-07 19:07 | 45.59750 | 23.13481 | 38059 ft | 420 kts | 302° |
| 2026-05-07 19:08 | 45.63121 | 23.06660 | 38059 ft | 420 kts | 302° |
| 2026-05-07 19:08 | 45.66491 | 22.99833 | 38059 ft | 420 kts | 302° |
| 2026-05-07 19:09 | 45.69852 | 22.93010 | 38059 ft | 420 kts | 301° |
| 2026-05-07 19:09 | 45.73192 | 22.86223 | 38061 ft | 420 kts | 301° |
| 2026-05-07 19:10 | 45.76547 | 22.79399 | 38061 ft | 419 kts | 301° |
| 2026-05-07 19:10 | 45.79899 | 22.72553 | 38062 ft | 419 kts | 301° |
| 2026-05-07 19:11 | 45.83239 | 22.65712 | 38060 ft | 419 kts | 301° |
| 2026-05-07 19:11 | 45.86557 | 22.58910 | 38055 ft | 419 kts | 301° |
| 2026-05-07 19:12 | 45.89887 | 22.52048 | 38049 ft | 419 kts | 301° |
| 2026-05-07 19:12 | 45.93222 | 22.45170 | 38047 ft | 419 kts | 301° |
| 2026-05-07 19:13 | 45.96547 | 22.38299 | 38045 ft | 419 kts | 301° |
| 2026-05-07 19:13 | 45.99836 | 22.31471 | 38044 ft | 419 kts | 301° |
| 2026-05-07 19:14 | 46.03157 | 22.24571 | 38044 ft | 419 kts | 300° |
| 2026-05-07 19:14 | 46.06477 | 22.17658 | 38046 ft | 419 kts | 300° |
| 2026-05-07 19:15 | 46.09788 | 22.10736 | 38049 ft | 420 kts | 300° |
| 2026-05-07 19:15 | 46.13097 | 22.03805 | 38051 ft | 420 kts | 300° |
| 2026-05-07 19:16 | 46.16404 | 21.96870 | 38051 ft | 420 kts | 300° |
| 2026-05-07 19:16 | 46.19690 | 21.89967 | 38057 ft | 420 kts | 300° |
| 2026-05-07 19:17 | 46.22984 | 21.83011 | 38061 ft | 420 kts | 300° |
| 2026-05-07 19:17 | 46.26277 | 21.76031 | 38064 ft | 420 kts | 300° |
| 2026-05-07 19:18 | 46.27925 | 21.72535 | 37885 ft | 421 kts | 300° |
| 2026-05-07 19:18 | 46.29570 | 21.69047 | 37631 ft | 420 kts | 300° |
| 2026-05-07 19:18 | 46.31196 | 21.65602 | 37389 ft | 420 kts | 300° |
| 2026-05-07 19:18 | 46.32840 | 21.62113 | 37139 ft | 420 kts | 300° |
| 2026-05-07 19:19 | 46.33949 | 21.59756 | 36969 ft | 420 kts | 300° |
| 2026-05-07 19:19 | 46.36125 | 21.55129 | 36636 ft | 420 kts | 300° |
| 2026-05-07 19:19 | 46.37764 | 21.51635 | 36381 ft | 420 kts | 300° |
| 2026-05-07 19:19 | 46.39407 | 21.48122 | 36135 ft | 422 kts | 300° |
| 2026-05-07 19:20 | 46.41052 | 21.44597 | 35887 ft | 424 kts | 300° |
| 2026-05-07 19:20 | 46.42711 | 21.41040 | 35642 ft | 427 kts | 300° |
| 2026-05-07 19:20 | 46.44380 | 21.37458 | 35388 ft | 430 kts | 300° |
| 2026-05-07 19:20 | 46.46059 | 21.33854 | 35132 ft | 431 kts | 300° |
| 2026-05-07 19:21 | 46.47733 | 21.30250 | 34889 ft | 431 kts | 300° |
| 2026-05-07 19:21 | 46.49439 | 21.26746 | 34640 ft | 432 kts | 304° |
| 2026-05-07 19:21 | 46.51452 | 21.23498 | 34393 ft | 433 kts | 309° |
| 2026-05-07 19:21 | 46.53519 | 21.20319 | 34140 ft | 432 kts | 309° |
| 2026-05-07 19:22 | 46.55574 | 21.17156 | 33891 ft | 430 kts | 309° |
| 2026-05-07 19:22 | 46.57623 | 21.13992 | 33640 ft | 429 kts | 309° |
| 2026-05-07 19:22 | 46.59661 | 21.10838 | 33385 ft | 427 kts | 308° |
| 2026-05-07 19:22 | 46.61005 | 21.08755 | 33222 ft | 426 kts | 308° |
| 2026-05-07 19:23 | 46.63030 | 21.05616 | 32964 ft | 424 kts | 308° |
| 2026-05-07 19:23 | 46.65048 | 21.02489 | 32713 ft | 423 kts | 308° |
| 2026-05-07 19:23 | 46.67695 | 20.98359 | 32320 ft | 420 kts | 306° |
| 2026-05-07 19:23 | 46.69396 | 20.94925 | 31262 ft | 417 kts | 298° |
| 2026-05-07 19:24 | 46.70442 | 20.92512 | 30506 ft | 416 kts | 297° |
| 2026-05-07 19:24 | 46.72451 | 20.87779 | 29051 ft | 414 kts | 297° |
| 2026-05-07 19:24 | 46.73443 | 20.85415 | 28324 ft | 412 kts | 297° |
| 2026-05-07 19:24 | 46.74929 | 20.81868 | 27305 ft | 408 kts | 297° |
| 2026-05-07 19:25 | 46.76396 | 20.78376 | 26361 ft | 401 kts | 297° |
| 2026-05-07 19:25 | 46.77851 | 20.74926 | 25389 ft | 396 kts | 297° |
| 2026-05-07 19:25 | 46.79285 | 20.71534 | 24421 ft | 391 kts | 297° |
| 2026-05-07 19:25 | 46.80703 | 20.68178 | 23455 ft | 386 kts | 297° |
| 2026-05-07 19:26 | 46.82103 | 20.64862 | 22505 ft | 381 kts | 297° |
| 2026-05-07 19:26 | 46.83487 | 20.61587 | 21582 ft | 377 kts | 297° |
| 2026-05-07 19:26 | 46.84854 | 20.58339 | 20673 ft | 373 kts | 298° |
| 2026-05-07 19:26 | 46.86436 | 20.55425 | 20276 ft | 361 kts | 313° |
| 2026-05-07 19:27 | 46.88377 | 20.53182 | 19904 ft | 359 kts | 319° |
| 2026-05-07 19:27 | 46.90357 | 20.50996 | 19515 ft | 355 kts | 319° |
| 2026-05-07 19:27 | 46.92318 | 20.48818 | 19094 ft | 353 kts | 319° |
| 2026-05-07 19:27 | 46.94268 | 20.46648 | 18663 ft | 351 kts | 319° |
| 2026-05-07 19:28 | 46.96204 | 20.44494 | 18244 ft | 349 kts | 319° |
| 2026-05-07 19:28 | 46.98134 | 20.42347 | 17831 ft | 347 kts | 320° |
| 2026-05-07 19:28 | 47.00054 | 20.40210 | 17430 ft | 345 kts | 320° |
| 2026-05-07 19:28 | 47.01934 | 20.38118 | 17041 ft | 343 kts | 320° |
| 2026-05-07 19:29 | 47.03827 | 20.36014 | 16661 ft | 341 kts | 320° |
| 2026-05-07 19:29 | 47.05714 | 20.33916 | 16282 ft | 339 kts | 320° |
| 2026-05-07 19:29 | 47.07585 | 20.31833 | 15907 ft | 337 kts | 320° |
| 2026-05-07 19:29 | 47.09443 | 20.29760 | 15544 ft | 334 kts | 320° |
| 2026-05-07 19:30 | 47.11287 | 20.27703 | 15191 ft | 332 kts | 320° |
| 2026-05-07 19:30 | 47.13120 | 20.25654 | 14837 ft | 330 kts | 320° |
| 2026-05-07 19:30 | 47.14924 | 20.23595 | 14479 ft | 327 kts | 316° |
| 2026-05-07 19:30 | 47.16552 | 20.21295 | 14132 ft | 323 kts | 309° |
| 2026-05-07 19:31 | 47.18072 | 20.18886 | 13783 ft | 320 kts | 310° |
| 2026-05-07 19:31 | 47.19568 | 20.16530 | 13438 ft | 319 kts | 310° |
| 2026-05-07 19:31 | 47.21077 | 20.14160 | 13083 ft | 316 kts | 310° |
| 2026-05-07 19:31 | 47.22576 | 20.11809 | 12735 ft | 314 kts | 310° |
| 2026-05-07 19:32 | 47.24066 | 20.09467 | 12383 ft | 312 kts | 310° |
| 2026-05-07 19:32 | 47.25541 | 20.07144 | 12024 ft | 310 kts | 310° |
| 2026-05-07 19:32 | 47.27008 | 20.04832 | 11663 ft | 308 kts | 310° |
| 2026-05-07 19:32 | 47.28467 | 20.02530 | 11299 ft | 306 kts | 310° |
| 2026-05-07 19:33 | 47.29911 | 20.00245 | 10915 ft | 304 kts | 310° |
| 2026-05-07 19:33 | 47.31344 | 19.97968 | 10537 ft | 302 kts | 310° |
| 2026-05-07 19:33 | 47.32750 | 19.95734 | 10142 ft | 301 kts | 310° |
| 2026-05-07 19:33 | 47.34167 | 19.93490 | 9900 ft | 294 kts | 310° |
| 2026-05-07 19:34 | 47.35545 | 19.91313 | 9680 ft | 288 kts | 310° |
| 2026-05-07 19:34 | 47.36901 | 19.89164 | 9352 ft | 285 kts | 310° |
| 2026-05-07 19:34 | 47.38244 | 19.87031 | 8997 ft | 283 kts | 310° |
| 2026-05-07 19:34 | 47.39580 | 19.84906 | 8626 ft | 281 kts | 310° |
| 2026-05-07 19:35 | 47.40896 | 19.82790 | 8251 ft | 280 kts | 309° |
| 2026-05-07 19:35 | 47.42200 | 19.80664 | 7885 ft | 277 kts | 309° |
| 2026-05-07 19:35 | 47.43448 | 19.78622 | 7753 ft | 266 kts | 309° |
| 2026-05-07 19:35 | 47.44664 | 19.76628 | 7629 ft | 256 kts | 309° |
| 2026-05-07 19:36 | 47.45833 | 19.74712 | 7475 ft | 246 kts | 309° |
| 2026-05-07 19:36 | 47.46972 | 19.72847 | 7193 ft | 244 kts | 309° |
| 2026-05-07 19:36 | 47.48102 | 19.70991 | 6877 ft | 242 kts | 309° |
| 2026-05-07 19:36 | 47.49222 | 19.69150 | 6539 ft | 240 kts | 309° |
| 2026-05-07 19:37 | 47.50340 | 19.67314 | 6197 ft | 240 kts | 309° |
| 2026-05-07 19:37 | 47.51453 | 19.65485 | 5864 ft | 239 kts | 309° |
| 2026-05-07 19:37 | 47.52547 | 19.63689 | 5541 ft | 238 kts | 309° |
| 2026-05-07 19:37 | 47.53651 | 19.61877 | 5208 ft | 236 kts | 309° |
| 2026-05-07 19:38 | 47.54748 | 19.60076 | 4871 ft | 235 kts | 309° |
| 2026-05-07 19:38 | 47.55632 | 19.58090 | 4536 ft | 229 kts | 287° |
| 2026-05-07 19:38 | 47.55844 | 19.55809 | 4203 ft | 223 kts | 261° |
| 2026-05-07 19:38 | 47.55359 | 19.53678 | 4001 ft | 219 kts | 236° |
| 2026-05-07 19:39 | 47.54294 | 19.52080 | 3999 ft | 221 kts | 212° |
| 2026-05-07 19:39 | 47.52845 | 19.51316 | 4011 ft | 225 kts | 187° |
| 2026-05-07 19:39 | 47.51288 | 19.51565 | 4011 ft | 229 kts | 166° |
| 2026-05-07 19:39 | 47.49775 | 19.52209 | 4012 ft | 229 kts | 166° |
| 2026-05-07 19:40 | 47.48242 | 19.52870 | 4000 ft | 230 kts | 166° |
| 2026-05-07 19:40 | 47.46706 | 19.53530 | 4003 ft | 230 kts | 166° |
| 2026-05-07 19:40 | 47.45169 | 19.54188 | 4013 ft | 230 kts | 166° |
| 2026-05-07 19:40 | 47.43636 | 19.54844 | 4002 ft | 231 kts | 166° |
| 2026-05-07 19:41 | 47.42095 | 19.55505 | 4010 ft | 230 kts | 166° |
| 2026-05-07 19:41 | 47.40560 | 19.56161 | 4009 ft | 228 kts | 166° |
| 2026-05-07 19:41 | 47.39087 | 19.56793 | 4004 ft | 213 kts | 166° |
| 2026-05-07 19:41 | 47.37708 | 19.57337 | 4007 ft | 197 kts | 174° |
| 2026-05-07 19:42 | 47.36391 | 19.57400 | 4008 ft | 185 kts | 189° |
| 2026-05-07 19:42 | 47.35155 | 19.56963 | 4010 ft | 182 kts | 203° |
| 2026-05-07 19:42 | 47.34058 | 19.56097 | 4002 ft | 181 kts | 217° |
| 2026-05-07 19:42 | 47.33110 | 19.54886 | 4002 ft | 181 kts | 223° |
| 2026-05-07 19:43 | 47.32182 | 19.53630 | 3886 ft | 180 kts | 223° |
| 2026-05-07 19:43 | 47.31271 | 19.52400 | 3788 ft | 173 kts | 223° |
| 2026-05-07 19:43 | 47.30466 | 19.51124 | 3649 ft | 170 kts | 241° |
| 2026-05-07 19:43 | 47.30249 | 19.49444 | 3524 ft | 172 kts | 276° |
| 2026-05-07 19:44 | 47.30782 | 19.47872 | 3404 ft | 177 kts | 309° |
| 2026-05-07 19:44 | 47.31622 | 19.46538 | 3291 ft | 177 kts | 309° |
| 2026-05-07 19:44 | 47.32460 | 19.45199 | 3193 ft | 178 kts | 309° |
| 2026-05-07 19:44 | 47.33286 | 19.43877 | 3002 ft | 178 kts | 309° |
| 2026-05-07 19:45 | 47.34122 | 19.42536 | 2780 ft | 178 kts | 309° |
| 2026-05-07 19:45 | 47.34943 | 19.41220 | 2554 ft | 169 kts | 309° |
| 2026-05-07 19:45 | 47.35717 | 19.39978 | 2340 ft | 158 kts | 310° |
| 2026-05-07 19:45 | 47.36438 | 19.38820 | 2133 ft | 150 kts | 310° |
| 2026-05-07 19:46 | 47.37134 | 19.37700 | 1936 ft | 147 kts | 311° |
| 2026-05-07 19:46 | 47.37820 | 19.36594 | 1733 ft | 145 kts | 311° |
| 2026-05-07 19:46 | 47.38499 | 19.35503 | 1549 ft | 144 kts | 312° |
| 2026-05-07 19:46 | 47.39174 | 19.34416 | 1358 ft | 143 kts | 312° |
| 2026-05-07 19:47 | 47.39839 | 19.33345 | 1168 ft | 143 kts | 312° |
| 2026-05-07 19:47 | 47.40508 | 19.32267 | 984 ft | 142 kts | 312° |
| 2026-05-07 19:47 | 47.41175 | 19.31192 | 794 ft | 142 kts | 312° |
| 2026-05-07 19:47 | 47.41839 | 19.30121 | 614 ft | 141 kts | 312° |
| 2026-05-07 19:48 | 47.42496 | 19.29061 | 460 ft | 138 kts | 312° |
| 2026-05-07 19:48 | 47.43058 | 19.28154 | 459 ft | 94 kts | 312° |
| 2026-05-07 19:48 | 47.43386 | 19.27625 | 466 ft | 45 kts | 312° |
| 2026-05-07 19:48 | 47.43574 | 19.27320 | 473 ft | 38 kts | 313° |
| 2026-05-07 19:49 | 47.43760 | 19.27026 | 474 ft | 39 kts | 312° |
| 2026-05-07 19:49 | 47.43933 | 19.26742 | 469 ft | 36 kts | 312° |
| 2026-05-07 19:49 | 47.44054 | 19.26536 | 467 ft | 16 kts | 301° |
| 2026-05-07 19:49 | 47.44058 | 19.26381 | 467 ft | 17 kts | 248° |
| 2026-05-07 19:50 | 47.43966 | 19.26226 | 457 ft | 22 kts | 222° |
| 2026-05-07 19:50 | 47.43854 | 19.26074 | 458 ft | 21 kts | 223° |
| 2026-05-07 19:50 | 47.43741 | 19.25921 | 457 ft | 23 kts | 221° |
| 2026-05-07 19:50 | 47.43621 | 19.25762 | 456 ft | 24 kts | 223° |
| 2026-05-07 19:51 | 47.43504 | 19.25602 | 457 ft | 17 kts | 222° |
| 2026-05-07 19:51 | 47.43470 | 19.25556 | 457 ft | 2 kts | 222° |
| 2026-05-07 19:51 | 47.43459 | 19.25542 | 457 ft | 4 kts | 222° |
| 2026-05-07 19:51 | 47.43427 | 19.25499 | 455 ft | 6 kts | 222° |
| 2026-05-07 19:52 | 47.43393 | 19.25454 | 456 ft | 11 kts | 221° |
| 2026-05-07 19:52 | 47.43322 | 19.25468 | 455 ft | 11 kts | 135° |
| 2026-05-07 19:52 | 47.43275 | 19.25540 | 456 ft | 8 kts | 134° |
| 2026-05-07 19:52 | 47.43230 | 19.25615 | 457 ft | 11 kts | 133° |
| 2026-05-07 19:53 | 47.43172 | 19.25709 | 457 ft | 13 kts | 133° |
| 2026-05-07 19:53 | 47.43112 | 19.25804 | 456 ft | 12 kts | 133° |
| 2026-05-07 19:53 | 47.43099 | 19.25859 | 457 ft | 5 kts | 77° |
| 2026-05-07 19:53 | 47.43117 | 19.25892 | 456 ft | 3 kts | 40° |
| 2026-05-07 19:54 | 47.43128 | 19.25906 | 457 ft | 1 kts | 41° |
| 2026-05-07 19:54 | 47.43131 | 19.25910 | 457 ft | 2 kts | 41° |
| 2026-05-07 19:54 | 47.43142 | 19.25924 | 457 ft | 0 kts | 42° |